createdAt,value
2022-09-12T00:01:52.997Z,33.33
2022-09-12T00:04:25.137Z,30.53
2022-09-12T00:07:32.823Z,33.50
2022-09-12T00:10:07.784Z,29.07
2022-09-12T00:15:42.471Z,31.67
2022-09-12T00:18:24.363Z,31.20
2022-09-12T00:21:20.805Z,31.60
2022-09-12T00:23:52.501Z,34.20
2022-09-12T00:26:29.802Z,33.83
2022-09-12T00:29:24.924Z,31.43
2022-09-12T00:35:10.704Z,33.93
2022-09-12T00:37:41.754Z,34.50
2022-09-12T00:40:14.639Z,35.83
2022-09-12T00:42:51.777Z,37.17
2022-09-12T00:45:28.179Z,36.07
2022-09-12T00:48:01.872Z,35.00
2022-09-12T00:50:51.023Z,35.03
2022-09-12T00:56:25.951Z,37.70
2022-09-12T00:59:02.963Z,31.73
2022-09-12T01:01:35.366Z,33.67
2022-09-12T01:04:06.594Z,34.20
2022-09-12T01:06:43.565Z,33.60
2022-09-12T01:12:26.271Z,31.90
2022-09-12T01:18:18.221Z,34.67
2022-09-12T01:21:08.975Z,36.27
2022-09-12T01:24:26.082Z,37.43
2022-09-12T01:27:38.703Z,33.80
2022-09-12T01:30:42.421Z,34.73
2022-09-12T01:33:47.706Z,35.43
2022-09-12T01:36:36.254Z,30.73
2022-09-12T01:39:10.024Z,33.83
2022-09-12T01:41:53.177Z,32.93
2022-09-12T01:44:37.825Z,27.30
2022-09-12T01:47:29.680Z,34.63
2022-09-12T01:50:12.567Z,29.37
2022-09-12T01:55:58.697Z,29.87
2022-09-12T01:58:37.697Z,33.30
2022-09-12T02:01:27.284Z,36.50
2022-09-12T02:04:13.681Z,31.97
2022-09-12T02:07:12.753Z,32.80
2022-09-12T02:15:37.842Z,27.87
2022-09-12T02:18:25.059Z,33.93
2022-09-12T02:21:02.339Z,32.50
2022-09-12T02:23:44.189Z,31.77
2022-09-12T02:26:33.382Z,29.40
2022-09-12T02:29:16.829Z,32.50
2022-09-12T02:31:56.019Z,28.10
2022-09-12T02:34:52.493Z,30.90
2022-09-12T02:37:33.218Z,30.23
2022-09-12T02:40:17.860Z,29.30
2022-09-12T02:42:55.445Z,27.17
2022-09-12T02:45:49.711Z,26.33
2022-09-12T02:51:26.718Z,29.07
2022-09-12T02:54:04.247Z,39.40
2022-09-12T02:56:52.196Z,35.47
2022-09-12T03:05:12.814Z,27.80
2022-09-12T03:11:46.956Z,27.03
2022-09-12T03:14:33.865Z,29.27
2022-09-12T03:17:24.424Z,26.80
2022-09-12T03:20:15.697Z,30.13
2022-09-12T03:22:56.203Z,29.17
2022-09-12T03:25:49.701Z,27.47
2022-09-12T03:28:29.316Z,27.57
2022-09-12T03:31:05.567Z,23.87
2022-09-12T03:33:40.640Z,23.27
2022-09-12T03:36:34.991Z,26.90
2022-09-12T03:39:10.545Z,27.37
2022-09-12T03:41:50.757Z,30.10
2022-09-12T03:44:39.258Z,26.87
2022-09-12T03:47:11.461Z,25.17
2022-09-12T03:49:43.365Z,27.87
2022-09-12T03:52:14.390Z,25.37
2022-09-12T03:54:46.576Z,30.03
2022-09-12T03:57:18.073Z,34.20
2022-09-12T03:59:53.140Z,28.23
2022-09-12T04:02:24.227Z,28.33
2022-09-12T04:04:55.556Z,26.60
2022-09-12T04:07:26.923Z,23.87
2022-09-12T04:09:58.568Z,28.67
2022-09-12T04:12:29.528Z,26.37
2022-09-12T04:15:06.002Z,24.90
2022-09-12T04:17:37.881Z,22.70
2022-09-12T04:20:09.766Z,23.23
2022-09-12T04:22:41.040Z,27.83
2022-09-12T04:25:13.266Z,28.47
2022-09-12T04:27:47.005Z,26.23
2022-09-12T04:30:20.000Z,28.57
2022-09-12T04:32:56.031Z,23.80
2022-09-12T04:35:28.903Z,22.90
2022-09-12T04:38:00.001Z,25.43
2022-09-12T04:40:33.416Z,26.43
2022-09-12T04:43:05.133Z,23.40
2022-09-12T04:45:38.815Z,23.73
2022-09-12T04:48:10.400Z,25.07
2022-09-12T04:50:41.694Z,28.60
2022-09-12T04:53:12.774Z,23.63
2022-09-12T04:55:44.073Z,19.20
2022-09-12T04:58:16.395Z,24.87
2022-09-12T05:00:50.225Z,24.30
2022-09-12T05:03:22.691Z,31.00
2022-09-12T05:05:56.431Z,23.87
2022-09-12T05:08:28.323Z,20.53
2022-09-12T05:11:03.723Z,27.90
2022-09-12T05:13:34.897Z,24.37
2022-09-12T05:16:10.181Z,25.80
2022-09-12T05:18:42.748Z,20.90
2022-09-12T05:21:17.211Z,26.07
2022-09-12T05:23:48.740Z,27.90
2022-09-12T05:26:21.381Z,24.33
2022-09-12T05:28:53.750Z,24.50
2022-09-12T05:31:28.187Z,23.20
2022-09-12T05:34:00.294Z,24.70
2022-09-12T05:36:33.210Z,28.70
2022-09-12T05:39:04.804Z,21.10
2022-09-12T05:41:37.512Z,27.10
2022-09-12T05:44:09.694Z,23.03
2022-09-12T05:46:52.074Z,27.20
2022-09-12T05:49:23.904Z,28.67
2022-09-12T05:51:55.157Z,24.90
2022-09-12T05:54:30.834Z,25.07
2022-09-12T05:57:02.928Z,25.00
2022-09-12T05:59:34.755Z,29.20
2022-09-12T06:02:08.095Z,27.03
2022-09-12T06:04:39.938Z,22.83
2022-09-12T06:07:11.169Z,26.60
2022-09-12T06:09:42.929Z,23.73
2022-09-12T06:12:14.700Z,23.93
2022-09-12T06:14:46.009Z,23.43
2022-09-12T06:17:20.578Z,27.33
2022-09-12T06:19:51.596Z,28.33
2022-09-12T06:22:22.838Z,24.27
2022-09-12T06:27:42.017Z,24.40
2022-09-12T06:30:15.154Z,24.27
2022-09-12T06:32:50.243Z,24.37
2022-09-12T06:35:22.534Z,26.50
2022-09-12T06:37:57.238Z,26.23
2022-09-12T06:40:29.291Z,26.70
2022-09-12T06:43:00.457Z,26.87
2022-09-12T06:45:31.759Z,27.03
2022-09-12T06:48:05.062Z,25.90
2022-09-12T06:50:35.879Z,26.80
2022-09-12T06:56:08.665Z,28.83
2022-09-12T06:58:41.373Z,20.43
2022-09-12T07:01:14.881Z,24.63
2022-09-12T07:03:52.118Z,25.23
2022-09-12T07:06:25.108Z,27.53
2022-09-12T07:08:57.894Z,24.43
2022-09-12T07:11:31.161Z,28.80
2022-09-12T07:14:03.344Z,23.77
2022-09-12T07:16:34.898Z,25.23
2022-09-12T07:19:10.982Z,26.27
2022-09-12T07:21:43.552Z,27.07
2022-09-12T07:24:14.802Z,20.17
2022-09-12T07:26:46.566Z,22.83
2022-09-12T07:29:35.969Z,23.10
2022-09-12T07:32:09.034Z,25.90
2022-09-12T07:34:43.297Z,25.17
2022-09-12T07:37:15.814Z,24.83
2022-09-12T07:39:46.958Z,25.17
2022-09-12T07:42:18.476Z,25.90
2022-09-12T07:44:49.963Z,21.57
2022-09-12T07:47:21.678Z,24.47
2022-09-12T07:49:55.533Z,24.70
2022-09-12T07:52:26.767Z,23.17
2022-09-12T07:54:57.952Z,23.03
2022-09-12T07:57:29.233Z,25.83
2022-09-12T08:00:00.017Z,26.27
2022-09-12T08:02:31.886Z,27.87
2022-09-12T08:05:06.718Z,27.97
2022-09-12T08:07:38.360Z,27.33
2022-09-12T08:10:10.384Z,23.87
2022-09-12T08:12:43.230Z,29.13
2022-09-12T08:15:14.735Z,23.97
2022-09-12T08:17:46.668Z,23.87
2022-09-12T08:20:20.299Z,26.07
2022-09-12T08:22:51.677Z,22.43
2022-09-12T08:25:23.031Z,25.67
2022-09-12T08:27:54.230Z,25.80
2022-09-12T08:30:25.513Z,26.90
2022-09-12T08:32:56.666Z,25.97
2022-09-12T08:35:31.972Z,23.97
2022-09-12T08:38:02.927Z,25.93
2022-09-12T08:40:35.173Z,28.80
2022-09-12T08:43:18.297Z,22.27
2022-09-12T08:45:57.969Z,25.63
2022-09-12T08:48:28.968Z,24.33
2022-09-12T08:51:03.647Z,24.43
2022-09-12T08:53:37.915Z,23.03
2022-09-12T08:56:13.256Z,22.87
2022-09-12T08:58:46.225Z,22.40
2022-09-12T09:01:29.925Z,27.73
2022-09-12T09:04:28.789Z,22.03
2022-09-12T09:07:38.195Z,24.80
2022-09-12T09:10:21.354Z,27.90
2022-09-12T09:12:59.802Z,25.27
2022-09-12T09:15:47.744Z,25.93
2022-09-12T09:18:25.129Z,23.63
2022-09-12T09:20:59.427Z,26.27
2022-09-12T09:23:34.746Z,24.70
2022-09-12T09:26:10.249Z,29.00
2022-09-12T09:28:48.139Z,25.13
2022-09-12T09:31:20.385Z,28.70
2022-09-12T09:33:55.099Z,23.70
2022-09-12T09:36:41.153Z,27.53
2022-09-12T09:39:23.025Z,28.93
2022-09-12T09:42:05.186Z,22.03
2022-09-12T09:44:37.407Z,22.47
2022-09-12T09:47:09.261Z,31.17
2022-09-12T09:49:41.036Z,27.97
2022-09-12T09:52:15.522Z,27.90
2022-09-12T09:54:53.605Z,27.10
2022-09-12T09:57:48.115Z,24.80
2022-09-12T10:00:32.659Z,23.97
2022-09-12T10:03:32.559Z,25.40
2022-09-12T10:06:05.556Z,31.60
2022-09-12T10:08:39.547Z,27.73
2022-09-12T10:11:28.308Z,28.17
2022-09-12T10:14:01.814Z,31.10
2022-09-12T10:16:34.383Z,32.13
2022-09-12T10:19:06.386Z,29.17
2022-09-12T10:21:41.510Z,31.73
2022-09-12T10:24:25.495Z,28.20
2022-09-12T10:27:18.186Z,28.23
2022-09-12T10:29:52.612Z,31.80
2022-09-12T10:32:30.980Z,26.10
2022-09-12T10:35:05.376Z,27.70
2022-09-12T10:37:39.958Z,31.20
2022-09-12T10:40:25.399Z,29.13
2022-09-12T10:43:01.001Z,33.00
2022-09-12T10:45:34.172Z,29.17
2022-09-12T10:48:25.287Z,25.30
2022-09-12T10:50:56.801Z,30.60
2022-09-12T10:53:34.129Z,34.67
2022-09-12T10:56:13.156Z,29.40
2022-09-12T10:59:15.695Z,28.63
2022-09-12T11:01:52.207Z,26.47
2022-09-12T11:04:40.441Z,26.63
2022-09-12T11:07:38.785Z,31.77
2022-09-12T11:10:24.952Z,27.33
2022-09-12T11:13:07.434Z,32.47
2022-09-12T11:16:11.290Z,29.70
2022-09-12T11:19:06.067Z,31.10
2022-09-12T11:22:00.791Z,30.03
2022-09-12T11:24:52.601Z,27.10
2022-09-12T11:27:38.460Z,32.60
2022-09-12T11:30:14.128Z,28.63
2022-09-12T11:33:07.374Z,32.17
2022-09-12T11:35:54.583Z,31.83
2022-09-12T11:38:48.910Z,31.00
2022-09-12T11:41:27.001Z,27.57
2022-09-12T11:44:03.575Z,26.70
2022-09-12T11:46:39.984Z,28.13
2022-09-12T11:49:23.043Z,27.13
2022-09-12T11:52:01.448Z,30.70
2022-09-12T11:54:39.594Z,23.60
2022-09-12T11:57:20.826Z,23.77
2022-09-12T11:59:56.335Z,29.10
2022-09-12T12:02:31.164Z,30.27
2022-09-12T12:05:23.249Z,28.10
2022-09-12T12:07:58.637Z,30.90
2022-09-12T12:10:37.480Z,24.77
2022-09-12T12:13:14.330Z,34.53
2022-09-12T12:15:51.605Z,34.80
2022-09-12T12:18:25.899Z,33.90
2022-09-12T12:20:58.468Z,31.60
2022-09-12T12:23:35.661Z,28.87
2022-09-12T12:26:08.010Z,28.37
2022-09-12T12:29:05.290Z,29.17
2022-09-12T12:32:14.358Z,39.67
2022-09-12T12:34:46.432Z,28.40
2022-09-12T12:37:52.070Z,27.47
2022-09-12T12:40:32.960Z,29.80
2022-09-12T12:43:27.135Z,27.93
2022-09-12T12:46:14.175Z,27.10
2022-09-12T12:49:09.677Z,33.10
2022-09-12T12:52:02.197Z,26.90
2022-09-12T12:54:54.794Z,31.37
2022-09-12T12:57:39.782Z,34.27
2022-09-12T13:00:28.744Z,32.20
2022-09-12T13:03:03.513Z,32.20
2022-09-12T13:05:42.823Z,33.43
2022-09-12T13:08:25.632Z,29.07
2022-09-12T13:10:59.444Z,33.43
2022-09-12T13:13:36.428Z,29.23
2022-09-12T13:16:08.961Z,28.83
2022-09-12T13:18:46.661Z,32.03
2022-09-12T13:21:19.004Z,34.77
2022-09-12T13:24:04.792Z,28.93
2022-09-12T13:26:44.886Z,30.10
2022-09-12T13:29:20.245Z,36.53
2022-09-12T13:31:55.005Z,31.23
2022-09-12T13:34:29.383Z,34.33
2022-09-12T13:37:28.539Z,27.80
2022-09-12T13:40:09.292Z,31.67
2022-09-12T13:42:45.915Z,34.10
2022-09-12T13:45:24.087Z,34.97
2022-09-12T13:47:59.053Z,34.23
2022-09-12T13:50:32.345Z,28.30
2022-09-12T13:53:05.680Z,36.07
2022-09-12T13:55:39.773Z,35.20
2022-09-12T13:58:23.042Z,34.10
2022-09-12T14:01:11.195Z,32.60
2022-09-12T14:04:01.675Z,35.50
2022-09-12T14:06:45.493Z,40.67
2022-09-12T14:09:24.997Z,36.23
2022-09-12T14:11:57.173Z,33.17
2022-09-12T14:17:30.531Z,42.13
2022-09-12T14:23:06.099Z,36.77
2022-09-12T14:25:50.836Z,37.53
2022-09-12T14:28:24.711Z,38.83
2022-09-12T14:31:09.374Z,44.60
2022-09-12T14:34:14.560Z,39.63
2022-09-12T14:36:58.395Z,40.23
2022-09-12T14:39:49.828Z,39.47
2022-09-12T14:47:46.024Z,35.50
2022-09-12T14:50:32.249Z,39.70
2022-09-12T14:53:09.711Z,33.90
2022-09-12T14:56:10.683Z,38.03
2022-09-12T14:58:46.432Z,38.70
2022-09-12T15:01:51.627Z,40.77
2022-09-12T15:04:43.900Z,30.53
2022-09-12T15:10:24.080Z,33.13
2022-09-12T15:13:26.182Z,31.57
2022-09-12T15:16:02.858Z,42.43
2022-09-12T15:21:22.915Z,34.37
2022-09-12T15:23:56.467Z,35.27
2022-09-12T15:26:32.650Z,30.83
2022-09-12T15:29:04.370Z,33.87
2022-09-12T15:31:36.224Z,33.20
2022-09-12T15:34:07.783Z,32.00
2022-09-12T15:36:39.044Z,36.70
2022-09-12T15:39:14.310Z,30.23
2022-09-12T15:41:45.412Z,31.97
2022-09-12T15:47:02.627Z,37.40
2022-09-12T15:49:34.023Z,32.03
2022-09-12T15:52:05.974Z,31.10
2022-09-12T15:54:40.016Z,33.57
2022-09-12T15:57:11.694Z,34.10
2022-09-12T15:59:42.739Z,31.07
2022-09-12T16:02:14.528Z,30.67
2022-09-12T16:04:46.156Z,30.90
2022-09-12T16:07:18.607Z,34.80
2022-09-12T16:09:54.608Z,28.23
2022-09-12T16:12:26.062Z,29.73
2022-09-12T16:14:58.840Z,33.60
2022-09-12T16:17:31.931Z,32.90
2022-09-12T16:20:03.206Z,36.97
2022-09-12T16:22:34.628Z,34.43
2022-09-12T16:25:10.346Z,26.57
2022-09-12T16:27:48.841Z,30.57
2022-09-12T16:30:27.221Z,29.97
2022-09-12T16:32:58.959Z,30.60
2022-09-12T16:35:30.542Z,31.63
2022-09-12T16:38:07.042Z,28.93
2022-09-12T16:40:39.943Z,28.40
2022-09-12T16:43:11.168Z,30.23
2022-09-12T16:45:42.557Z,35.23
2022-09-12T16:48:13.806Z,24.87
2022-09-12T16:50:45.007Z,29.50
2022-09-12T16:53:16.400Z,30.77
2022-09-12T16:55:55.326Z,32.70
2022-09-12T16:58:26.634Z,31.17
2022-09-12T17:01:05.065Z,29.97
2022-09-12T17:03:37.008Z,26.43
2022-09-12T17:06:11.072Z,25.33
2022-09-12T17:08:43.649Z,29.40
2022-09-12T17:11:18.881Z,24.93
2022-09-12T17:14:07.523Z,27.87
2022-09-12T17:16:40.380Z,25.83
2022-09-12T17:19:15.920Z,34.23
2022-09-12T17:21:48.503Z,27.97
2022-09-12T17:24:19.862Z,30.70
2022-09-12T17:26:53.504Z,24.93
2022-09-12T17:29:24.894Z,27.00
2022-09-12T17:31:56.678Z,27.07
2022-09-12T17:37:28.558Z,26.23
2022-09-12T17:40:01.281Z,24.50
2022-09-12T17:42:36.918Z,25.83
2022-09-12T17:45:08.948Z,28.00
2022-09-12T17:47:40.141Z,24.40
2022-09-12T17:50:30.758Z,21.47
2022-09-12T17:53:06.605Z,26.70
2022-09-12T17:58:39.421Z,28.33
2022-09-12T18:01:30.929Z,26.27
2022-09-12T18:07:05.147Z,23.33
2022-09-12T18:09:39.330Z,25.43
2022-09-12T18:12:11.853Z,21.63
2022-09-12T18:14:45.621Z,26.67
2022-09-12T18:17:21.553Z,24.80
2022-09-12T18:22:43.289Z,26.67
2022-09-12T18:25:14.840Z,24.93
2022-09-12T18:27:48.192Z,22.93
2022-09-12T18:30:25.215Z,28.53
2022-09-12T18:32:57.298Z,27.37
2022-09-12T18:35:34.087Z,23.77
2022-09-12T18:38:05.513Z,23.93
2022-09-12T18:40:37.432Z,24.20
2022-09-12T18:43:08.949Z,25.40
2022-09-12T18:45:41.770Z,27.00
2022-09-12T18:48:13.113Z,26.63
2022-09-12T18:50:43.907Z,25.77
2022-09-12T18:53:15.893Z,27.73
2022-09-12T18:55:47.616Z,23.13
2022-09-12T18:58:18.981Z,23.53
2022-09-12T19:00:51.810Z,21.67
2022-09-12T19:03:23.326Z,21.10
2022-09-12T19:05:55.042Z,25.90
2022-09-12T19:08:26.533Z,23.23
2022-09-12T19:11:01.998Z,23.57
2022-09-12T19:13:33.969Z,27.13
2022-09-12T19:16:09.980Z,23.87
2022-09-12T19:18:42.093Z,26.03
2022-09-12T19:21:16.435Z,25.47
2022-09-12T19:23:48.930Z,23.23
2022-09-12T19:26:21.380Z,25.57
2022-09-12T19:28:53.682Z,23.07
2022-09-12T19:31:31.343Z,28.67
2022-09-12T19:34:04.636Z,23.90
2022-09-12T19:36:45.790Z,30.90
2022-09-12T19:39:19.082Z,30.97
2022-09-12T19:41:50.286Z,25.90
2022-09-12T19:44:22.226Z,26.17
2022-09-12T19:46:55.590Z,25.50
2022-09-12T19:49:27.529Z,23.63
2022-09-12T19:51:59.155Z,23.60
2022-09-12T19:54:30.463Z,26.47
2022-09-12T19:57:02.173Z,25.03
2022-09-12T19:59:33.441Z,21.70
2022-09-12T20:02:07.258Z,23.37
2022-09-12T20:04:45.294Z,28.43
2022-09-12T20:07:16.757Z,27.63
2022-09-12T20:09:47.976Z,27.73
2022-09-12T20:12:19.296Z,27.60
2022-09-12T20:14:50.595Z,22.03
2022-09-12T20:17:24.256Z,26.43
2022-09-12T20:19:55.645Z,30.33
2022-09-12T20:22:26.926Z,22.13
2022-09-12T20:24:58.290Z,29.83
2022-09-12T20:27:29.816Z,29.13
2022-09-12T20:30:01.291Z,24.90
2022-09-12T20:32:34.905Z,24.20
2022-09-12T20:35:10.818Z,26.53
2022-09-12T20:37:43.074Z,25.87
2022-09-12T20:40:14.683Z,25.63
2022-09-12T20:42:46.329Z,24.43
2022-09-12T20:45:18.648Z,24.97
2022-09-12T20:47:52.198Z,25.00
2022-09-12T20:50:23.705Z,23.30
2022-09-12T20:52:56.689Z,23.23
2022-09-12T20:55:28.496Z,24.13
2022-09-12T20:57:59.728Z,25.47
2022-09-12T21:00:35.103Z,21.77
2022-09-12T21:03:09.353Z,27.30
2022-09-12T21:05:41.701Z,29.40
2022-09-12T21:08:13.387Z,28.37
2022-09-12T21:10:45.009Z,26.40
2022-09-12T21:13:17.186Z,28.20
2022-09-12T21:19:03.993Z,23.83
2022-09-12T21:21:39.819Z,26.10
2022-09-12T21:24:11.168Z,24.07
2022-09-12T21:29:43.113Z,26.00
2022-09-12T21:35:28.189Z,27.67
2022-09-12T21:38:34.163Z,26.87
2022-09-12T21:41:10.382Z,28.33
2022-09-12T21:43:42.294Z,27.50
2022-09-12T21:46:16.640Z,28.57
2022-09-12T21:48:49.734Z,26.07
2022-09-12T21:51:21.749Z,27.00
2022-09-12T21:53:55.414Z,24.90
2022-09-12T21:56:29.092Z,24.37
2022-09-12T21:59:00.292Z,25.77
2022-09-12T22:01:31.926Z,23.87
2022-09-12T22:04:03.134Z,24.53
2022-09-12T22:06:35.451Z,24.67
2022-09-12T22:09:09.577Z,22.33
2022-09-12T22:11:41.223Z,23.97
2022-09-12T22:14:13.660Z,23.80
2022-09-12T22:16:44.546Z,24.80
2022-09-12T22:19:16.328Z,25.83
2022-09-12T22:22:00.340Z,23.73
2022-09-12T22:24:33.442Z,22.90
2022-09-12T22:27:16.099Z,20.97
2022-09-12T22:33:05.614Z,27.70
2022-09-12T22:38:25.255Z,23.67
2022-09-12T22:41:01.816Z,25.20
2022-09-12T22:43:49.351Z,24.30
2022-09-12T22:46:26.176Z,24.83
2022-09-12T22:49:18.639Z,21.50
2022-09-12T22:51:52.028Z,25.63
2022-09-12T22:54:25.394Z,23.90
2022-09-12T22:57:05.595Z,23.27
2022-09-12T22:59:39.182Z,25.73
2022-09-12T23:02:09.774Z,22.70
2022-09-12T23:04:46.777Z,24.73
2022-09-12T23:07:18.135Z,23.03
2022-09-12T23:12:54.847Z,25.17
2022-09-12T23:15:26.728Z,23.90
2022-09-12T23:18:00.071Z,23.40
2022-09-12T23:20:35.194Z,22.00
2022-09-12T23:29:40.011Z,24.47
2022-09-12T23:35:31.974Z,27.07
2022-09-12T23:41:10.227Z,23.90
2022-09-12T23:43:47.211Z,21.47
2022-09-12T23:46:20.600Z,20.67
2022-09-12T23:49:07.385Z,23.70
2022-09-12T23:51:48.825Z,24.37
2022-09-12T23:54:24.405Z,20.73
2022-09-12T23:57:07.020Z,21.87
2022-09-12T23:59:43.593Z,21.43
